createdAt,value
2023-03-17T00:04:57.478Z,95
2023-03-17T00:14:59.072Z,94
2023-03-17T00:25:01.377Z,93
2023-03-17T00:35:03.766Z,92
2023-03-17T00:45:05.618Z,92
2023-03-17T00:55:07.812Z,91
2023-03-17T01:05:10.294Z,92
2023-03-17T01:15:12.806Z,93
2023-03-17T01:25:15.085Z,93
2023-03-17T01:35:17.553Z,93
2023-03-17T01:45:20.034Z,92
2023-03-17T01:55:22.638Z,92
2023-03-17T02:05:24.946Z,92
2023-03-17T02:15:27.293Z,92
2023-03-17T02:25:29.169Z,91
2023-03-17T02:35:31.662Z,91
2023-03-17T02:45:33.646Z,91
2023-03-17T02:55:35.470Z,91
2023-03-17T03:05:37.640Z,91
2023-03-17T03:15:39.455Z,92
2023-03-17T03:25:41.638Z,94
2023-03-17T03:35:43.666Z,96
2023-03-17T03:45:45.460Z,97
2023-03-17T03:55:47.841Z,97
2023-03-17T04:05:50.447Z,97
2023-03-17T04:15:52.350Z,98
2023-03-17T04:25:54.954Z,99
2023-03-17T04:35:56.725Z,100
2023-03-17T04:45:58.821Z,100
2023-03-17T04:56:00.959Z,100
2023-03-17T05:06:03.028Z,100
2023-03-17T05:16:05.470Z,100
2023-03-17T05:26:07.520Z,100
2023-03-17T05:36:09.815Z,100
2023-03-17T05:46:12.228Z,100
2023-03-17T05:56:14.431Z,100
2023-03-17T06:06:16.383Z,100
2023-03-17T06:16:18.926Z,100
2023-03-17T06:26:21.230Z,100
2023-03-17T06:36:23.808Z,100
2023-03-17T06:46:26.059Z,98
2023-03-17T06:56:30.399Z,97
2023-03-17T07:06:30.468Z,95
2023-03-17T07:16:32.818Z,94
2023-03-17T07:26:35.284Z,91
2023-03-17T07:36:37.794Z,88
2023-03-17T07:46:40.191Z,84
2023-03-17T07:56:42.291Z,81
2023-03-17T08:06:43.918Z,79
2023-03-17T08:16:46.404Z,78
2023-03-17T08:26:48.365Z,76
2023-03-17T08:36:50.527Z,75
2023-03-17T08:46:52.308Z,74
2023-03-17T08:56:54.630Z,74
2023-03-17T09:07:03.109Z,73
2023-03-17T09:16:58.543Z,73
2023-03-17T09:27:00.800Z,72
2023-03-17T09:37:03.132Z,71
2023-03-17T09:47:05.690Z,70
2023-03-17T10:07:10.022Z,68
2023-03-17T10:17:12.014Z,68
2023-03-17T10:27:13.679Z,67
2023-03-17T10:37:15.708Z,66
2023-03-17T10:47:18.124Z,65
2023-03-17T10:57:20.391Z,64
2023-03-17T11:07:22.234Z,64
2023-03-17T11:17:23.909Z,64
2023-03-17T11:27:25.938Z,63
2023-03-17T11:37:28.535Z,62
2023-03-17T11:47:30.483Z,61
2023-03-17T11:57:32.793Z,60
2023-03-17T12:07:34.978Z,61
2023-03-17T12:27:39.372Z,59
2023-03-17T13:07:48.239Z,58
2023-03-17T13:17:50.353Z,60
2023-03-17T13:27:52.472Z,60
2023-03-17T13:37:54.527Z,58
2023-03-17T13:47:56.264Z,56
2023-03-17T13:57:58.345Z,57
2023-03-17T14:08:00.440Z,58
2023-03-17T14:18:02.234Z,58
2023-03-17T14:28:04.281Z,60
2023-03-17T14:38:06.146Z,61
2023-03-17T14:48:08.672Z,61
2023-03-17T14:58:10.812Z,61
2023-03-17T15:08:12.769Z,61
2023-03-17T15:18:15.158Z,63
2023-03-17T15:28:16.808Z,63
2023-03-17T15:48:20.494Z,65
2023-03-17T16:08:25.387Z,68
2023-03-17T16:18:27.244Z,68
2023-03-17T16:38:31.864Z,71
2023-03-17T16:48:34.191Z,72
2023-03-17T16:58:36.027Z,73
2023-03-17T17:08:37.863Z,73
2023-03-17T17:08:59.797Z,73
2023-03-17T17:18:47.160Z,74
2023-03-17T17:28:48.974Z,75
2023-03-17T17:38:51.280Z,76
2023-03-17T17:48:52.953Z,76
2023-03-17T17:58:55.431Z,76
2023-03-17T18:08:57.623Z,78
2023-03-17T18:19:00.242Z,79
2023-03-17T18:29:02.548Z,80
2023-03-17T18:39:04.514Z,81
2023-03-17T18:49:06.225Z,81
2023-03-17T18:59:08.775Z,82
2023-03-17T19:09:10.643Z,83
2023-03-17T19:19:12.605Z,84
2023-03-17T19:29:14.411Z,86
2023-03-17T19:39:16.685Z,87
2023-03-17T19:49:18.456Z,87
2023-03-17T19:59:20.683Z,88
2023-03-17T20:09:22.738Z,88
2023-03-17T20:19:24.507Z,88
2023-03-17T20:29:26.687Z,88
2023-03-17T20:39:28.800Z,88
2023-03-17T21:09:35.594Z,88
2023-03-17T21:39:42.922Z,92
2023-03-17T22:19:50.986Z,100
2023-03-17T22:39:55.145Z,100
2023-03-17T22:49:57.118Z,100
2023-03-17T22:59:59.105Z,100
2023-03-17T23:20:03.475Z,100
2023-03-17T23:40:08.529Z,100
2023-03-17T23:50:10.768Z,100
